createdAt,value
2022-11-10T00:00:34.481Z,9.60
2022-11-10T00:01:37.370Z,9.30
2022-11-10T00:02:39.281Z,10.15
2022-11-10T00:03:42.234Z,10.88
2022-11-10T00:04:44.256Z,10.10
2022-11-10T00:05:47.236Z,7.63
2022-11-10T00:06:49.638Z,11.35
2022-11-10T00:07:52.631Z,13.25
2022-11-10T00:08:54.582Z,9.00
2022-11-10T00:10:00.344Z,10.55
2022-11-10T00:11:06.267Z,8.63
2022-11-10T00:12:09.186Z,11.02
2022-11-10T00:13:11.171Z,10.90
2022-11-10T00:14:32.816Z,8.48
2022-11-10T00:15:53.112Z,11.45
2022-11-10T00:17:02.016Z,11.70
2022-11-10T00:18:05.194Z,8.68
2022-11-10T00:19:08.143Z,9.10
2022-11-10T00:20:11.440Z,9.63
2022-11-10T00:21:15.909Z,10.25
2022-11-10T00:22:17.842Z,10.43
2022-11-10T00:23:21.084Z,8.70
2022-11-10T00:24:24.063Z,12.10
2022-11-10T00:25:28.487Z,12.02
2022-11-10T00:26:30.412Z,9.48
2022-11-10T00:27:34.192Z,9.77
2022-11-10T00:28:36.108Z,9.10
2022-11-10T00:29:40.340Z,10.10
2022-11-10T00:30:46.565Z,10.68
2022-11-10T00:31:49.801Z,10.13
2022-11-10T00:32:51.762Z,9.85
2022-11-10T00:33:54.818Z,11.38
2022-11-10T00:34:56.729Z,8.55
2022-11-10T00:36:01.274Z,8.90
2022-11-10T00:37:03.190Z,11.07
2022-11-10T00:38:06.188Z,9.07
2022-11-10T00:39:08.304Z,9.50
2022-11-10T00:40:12.134Z,12.32
2022-11-10T00:41:15.062Z,8.27
2022-11-10T00:42:16.993Z,12.48
2022-11-10T00:43:25.293Z,9.75
2022-11-10T00:44:28.366Z,10.70
2022-11-10T00:45:32.729Z,9.93
2022-11-10T00:46:35.669Z,10.02
2022-11-10T00:47:37.616Z,11.75
2022-11-10T00:48:40.562Z,9.15
2022-11-10T00:49:42.564Z,12.35
2022-11-10T00:50:45.557Z,10.60
2022-11-10T00:51:47.514Z,10.95
2022-11-10T00:52:50.437Z,9.13
2022-11-10T00:53:53.595Z,10.75
2022-11-10T00:54:56.508Z,9.30
2022-11-10T00:55:58.449Z,10.75
2022-11-10T00:57:01.396Z,8.93
2022-11-10T00:58:03.319Z,9.25
2022-11-10T00:59:06.386Z,12.20
2022-11-10T01:00:09.782Z,7.78
2022-11-10T01:01:15.109Z,10.45
2022-11-10T01:02:17.100Z,9.57
2022-11-10T01:03:20.416Z,10.40
2022-11-10T01:04:22.572Z,11.93
2022-11-10T01:05:25.520Z,9.35
2022-11-10T01:06:27.445Z,8.80
2022-11-10T01:07:30.353Z,9.85
2022-11-10T01:08:32.558Z,9.43
2022-11-10T01:09:35.480Z,9.65
2022-11-10T01:10:37.408Z,10.07
2022-11-10T01:11:40.442Z,7.68
2022-11-10T01:12:42.362Z,8.55
2022-11-10T01:13:46.022Z,10.60
2022-11-10T01:14:49.164Z,9.70
2022-11-10T01:15:51.087Z,8.40
2022-11-10T01:16:55.373Z,9.48
2022-11-10T01:17:57.344Z,8.70
2022-11-10T01:19:02.103Z,9.98
2022-11-10T01:20:04.746Z,10.70
2022-11-10T01:21:08.445Z,9.23
2022-11-10T01:22:10.357Z,8.65
2022-11-10T01:23:13.271Z,9.40
2022-11-10T01:24:19.436Z,9.93
2022-11-10T01:25:22.368Z,9.82
2022-11-10T01:26:24.584Z,10.90
2022-11-10T01:27:27.481Z,8.57
2022-11-10T01:28:29.769Z,8.75
2022-11-10T01:29:32.717Z,9.05
2022-11-10T01:30:34.656Z,9.52
2022-11-10T01:31:37.575Z,8.75
2022-11-10T01:32:41.085Z,9.43
2022-11-10T01:33:44.006Z,8.75
2022-11-10T01:34:45.964Z,10.25
2022-11-10T01:35:48.871Z,10.50
2022-11-10T01:36:50.813Z,7.93
2022-11-10T01:37:54.344Z,10.95
2022-11-10T01:38:57.272Z,8.98
2022-11-10T01:39:59.308Z,9.98
2022-11-10T01:41:02.917Z,12.50
2022-11-10T01:42:05.128Z,10.27
2022-11-10T01:43:11.097Z,12.52
2022-11-10T01:44:18.699Z,10.02
2022-11-10T01:45:50.121Z,8.98
2022-11-10T01:46:53.065Z,8.57
2022-11-10T01:47:59.685Z,10.98
2022-11-10T01:49:04.555Z,7.68
2022-11-10T01:50:07.473Z,12.32
2022-11-10T01:51:16.364Z,9.70
2022-11-10T01:52:18.485Z,15.10
2022-11-10T01:53:27.827Z,9.20
2022-11-10T01:54:32.429Z,9.95
2022-11-10T01:55:36.642Z,10.38
2022-11-10T01:56:42.018Z,9.73
2022-11-10T01:57:45.109Z,9.32
2022-11-10T01:58:56.295Z,8.93
2022-11-10T01:59:58.364Z,7.75
2022-11-10T02:01:01.404Z,8.60
2022-11-10T02:02:09.952Z,11.00
2022-11-10T02:03:19.150Z,7.55
2022-11-10T02:04:21.815Z,10.23
2022-11-10T02:05:25.252Z,9.05
2022-11-10T02:06:30.558Z,10.10
2022-11-10T02:07:34.020Z,12.35
2022-11-10T02:08:36.611Z,8.48
2022-11-10T02:09:39.680Z,9.40
2022-11-10T02:10:41.952Z,10.07
2022-11-10T02:11:46.536Z,7.35
2022-11-10T02:12:49.759Z,9.50
2022-11-10T02:13:53.611Z,9.93
2022-11-10T02:14:55.575Z,9.93
2022-11-10T02:15:58.675Z,8.95
2022-11-10T02:17:01.044Z,8.18
2022-11-10T02:18:04.017Z,9.98
2022-11-10T02:19:18.844Z,9.82
2022-11-10T02:20:21.534Z,9.77
2022-11-10T02:21:25.839Z,9.45
2022-11-10T02:22:27.795Z,9.45
2022-11-10T02:23:48.294Z,9.23
2022-11-10T02:24:50.307Z,8.45
2022-11-10T02:25:53.239Z,10.93
2022-11-10T02:26:56.514Z,9.98
2022-11-10T02:27:59.503Z,11.43
2022-11-10T02:29:01.424Z,10.70
2022-11-10T02:30:06.861Z,8.13
2022-11-10T02:31:09.618Z,10.48
2022-11-10T02:32:12.608Z,11.30
2022-11-10T02:33:17.823Z,18.65
2022-11-10T02:34:20.798Z,9.07
2022-11-10T02:35:22.771Z,11.88
2022-11-10T02:36:27.036Z,10.32
2022-11-10T02:37:28.993Z,13.07
2022-11-10T02:38:32.050Z,11.95
2022-11-10T02:39:34.959Z,12.48
2022-11-10T02:40:36.964Z,17.50
2022-11-10T02:41:39.920Z,12.85
2022-11-10T02:42:41.824Z,15.32
2022-11-10T02:43:44.799Z,12.55
2022-11-10T02:44:47.029Z,11.85
2022-11-10T02:45:50.058Z,14.88
2022-11-10T02:46:52.034Z,11.15
2022-11-10T02:47:54.981Z,10.40
2022-11-10T02:48:57.008Z,11.93
2022-11-10T02:49:59.934Z,16.85
2022-11-10T02:51:01.865Z,13.10
2022-11-10T02:52:06.356Z,13.63
2022-11-10T02:53:08.394Z,14.63
2022-11-10T02:54:11.304Z,12.88
2022-11-10T02:55:13.248Z,13.15
2022-11-10T02:56:16.185Z,13.68
2022-11-10T02:57:18.149Z,11.68
2022-11-10T02:58:21.036Z,14.60
2022-11-10T02:59:23.020Z,13.52
2022-11-10T03:00:26.283Z,16.43
2022-11-10T03:01:28.224Z,16.55
2022-11-10T03:02:32.387Z,13.90
2022-11-10T03:03:35.807Z,11.90
2022-11-10T03:04:37.782Z,16.77
2022-11-10T03:05:40.728Z,15.48
2022-11-10T03:06:42.674Z,12.18
2022-11-10T03:07:46.969Z,12.27
2022-11-10T03:08:48.892Z,15.60
2022-11-10T03:09:51.888Z,17.98
2022-11-10T03:10:55.207Z,13.38
2022-11-10T03:11:58.097Z,14.10
2022-11-10T03:13:02.268Z,12.65
2022-11-10T03:14:05.195Z,16.27
2022-11-10T03:15:08.277Z,14.85
2022-11-10T03:16:11.190Z,14.15
2022-11-10T03:17:13.152Z,13.30
2022-11-10T03:18:16.144Z,12.18
2022-11-10T03:19:18.118Z,11.63
2022-11-10T03:20:21.040Z,14.75
2022-11-10T03:21:23.029Z,12.52
2022-11-10T03:22:26.003Z,16.75
2022-11-10T03:23:29.302Z,15.13
2022-11-10T03:24:32.293Z,14.55
2022-11-10T03:25:34.372Z,13.05
2022-11-10T03:26:37.289Z,17.92
2022-11-10T03:27:39.324Z,14.80
2022-11-10T03:28:42.269Z,18.00
2022-11-10T03:29:44.196Z,15.23
2022-11-10T03:30:47.312Z,12.75
2022-11-10T03:31:49.244Z,12.32
2022-11-10T03:32:52.220Z,13.23
2022-11-10T03:33:54.152Z,12.07
2022-11-10T03:34:57.078Z,14.07
2022-11-10T03:36:00.042Z,15.82
2022-11-10T03:37:01.965Z,15.60
2022-11-10T03:38:04.967Z,12.80
2022-11-10T03:39:08.279Z,12.93
2022-11-10T03:40:11.936Z,16.77
2022-11-10T03:41:21.254Z,13.23
2022-11-10T03:42:24.209Z,16.33
2022-11-10T03:43:27.100Z,16.70
2022-11-10T03:44:29.030Z,14.43
2022-11-10T03:45:32.077Z,15.30
2022-11-10T03:46:34.049Z,19.08
2022-11-10T03:47:37.000Z,15.48
2022-11-10T03:48:38.912Z,11.68
2022-11-10T03:49:41.856Z,14.30
2022-11-10T03:50:43.787Z,11.77
2022-11-10T03:51:46.696Z,15.27
2022-11-10T03:52:48.619Z,17.15
2022-11-10T03:53:51.540Z,12.05
2022-11-10T03:54:57.026Z,15.55
2022-11-10T03:56:03.998Z,16.23
2022-11-10T03:57:05.953Z,14.85
2022-11-10T03:58:08.885Z,13.75
2022-11-10T03:59:10.810Z,12.82
2022-11-10T04:00:15.150Z,11.65
2022-11-10T04:01:17.245Z,15.52
2022-11-10T04:02:20.252Z,15.25
2022-11-10T04:03:22.965Z,15.50
2022-11-10T04:04:43.650Z,18.65
2022-11-10T04:06:04.195Z,13.77
2022-11-10T04:07:24.685Z,11.43
2022-11-10T04:08:45.143Z,13.13
2022-11-10T04:09:48.036Z,14.65
2022-11-10T04:10:51.392Z,16.42
2022-11-10T04:12:11.535Z,19.33
2022-11-10T04:13:31.915Z,13.40
2022-11-10T04:14:52.384Z,18.08
2022-11-10T04:15:55.318Z,14.05
2022-11-10T04:16:57.689Z,13.80
2022-11-10T04:18:20.717Z,15.60
2022-11-10T04:19:23.987Z,15.82
2022-11-10T04:20:25.928Z,14.30
2022-11-10T04:21:28.868Z,11.93
2022-11-10T04:22:49.099Z,11.90
2022-11-10T04:23:52.000Z,15.02
2022-11-10T04:24:53.917Z,13.10
2022-11-10T04:26:18.314Z,14.70
2022-11-10T04:27:21.249Z,14.48
2022-11-10T04:28:23.228Z,13.02
2022-11-10T04:29:26.198Z,14.15
2022-11-10T04:30:28.168Z,12.57
2022-11-10T04:31:32.964Z,13.48
2022-11-10T04:32:34.869Z,15.70
2022-11-10T04:33:38.713Z,16.05
2022-11-10T04:34:40.633Z,15.48
2022-11-10T04:35:44.113Z,17.08
2022-11-10T04:36:47.033Z,15.85
2022-11-10T04:37:49.007Z,13.55
2022-11-10T04:38:52.099Z,11.85
2022-11-10T04:39:54.041Z,15.48
2022-11-10T04:40:58.601Z,14.38
2022-11-10T04:42:03.081Z,12.32
2022-11-10T04:43:05.186Z,13.80
2022-11-10T04:44:08.421Z,18.15
2022-11-10T04:45:10.693Z,16.23
2022-11-10T04:46:22.085Z,16.83
2022-11-10T04:47:24.005Z,14.10
2022-11-10T04:48:27.868Z,16.98
2022-11-10T04:49:30.772Z,17.67
2022-11-10T04:50:32.727Z,13.85
2022-11-10T04:51:37.366Z,17.08
2022-11-10T04:52:39.408Z,14.57
2022-11-10T04:53:42.297Z,12.85
2022-11-10T04:54:44.213Z,15.95
2022-11-10T04:55:47.801Z,16.02
2022-11-10T04:56:51.053Z,13.75
2022-11-10T04:57:54.162Z,15.70
2022-11-10T04:58:57.569Z,13.60
2022-11-10T04:59:59.514Z,14.43
2022-11-10T05:01:02.485Z,15.65
2022-11-10T05:02:04.434Z,14.48
2022-11-10T05:03:09.609Z,15.68
2022-11-10T05:04:12.538Z,13.93
2022-11-10T05:05:14.633Z,21.25
2022-11-10T05:06:18.320Z,13.68
2022-11-10T05:07:20.253Z,21.58
2022-11-10T05:08:23.238Z,24.52
2022-11-10T05:09:26.144Z,17.40
2022-11-10T05:10:28.082Z,15.45
2022-11-10T05:11:31.004Z,13.43
2022-11-10T05:12:34.316Z,22.25
2022-11-10T05:13:37.406Z,16.40
2022-11-10T05:14:39.384Z,16.88
2022-11-10T05:15:42.532Z,14.07
2022-11-10T05:16:45.468Z,16.75
2022-11-10T05:17:49.640Z,19.13
2022-11-10T05:18:53.952Z,16.17
2022-11-10T05:19:55.919Z,15.75
2022-11-10T05:20:58.916Z,19.52
2022-11-10T05:22:00.913Z,17.17
2022-11-10T05:23:21.640Z,14.05
2022-11-10T05:24:24.881Z,17.33
2022-11-10T05:25:26.833Z,18.88
2022-11-10T05:26:29.744Z,20.00
2022-11-10T05:27:31.690Z,17.23
2022-11-10T05:28:36.443Z,16.52
2022-11-10T05:29:38.400Z,18.45
2022-11-10T05:30:41.587Z,25.35
2022-11-10T05:31:45.848Z,19.15
2022-11-10T05:32:52.065Z,18.83
2022-11-10T05:33:55.009Z,16.48
2022-11-10T05:34:56.928Z,17.75
2022-11-10T05:35:59.972Z,16.63
2022-11-10T05:37:01.901Z,18.58
2022-11-10T05:38:05.523Z,15.07
2022-11-10T05:39:08.539Z,14.32
2022-11-10T05:40:11.275Z,14.00
2022-11-10T05:41:14.191Z,14.75
2022-11-10T05:42:16.088Z,13.52
2022-11-10T05:43:19.123Z,17.63
2022-11-10T05:44:22.458Z,13.40
2022-11-10T05:45:27.693Z,13.48
2022-11-10T05:46:31.627Z,15.13
2022-11-10T05:47:36.365Z,10.05
2022-11-10T05:48:39.304Z,12.10
2022-11-10T05:49:41.241Z,14.32
2022-11-10T05:50:44.400Z,11.73
2022-11-10T05:51:46.333Z,11.80
2022-11-10T05:52:50.876Z,10.48
2022-11-10T05:53:54.113Z,6.90
2022-11-10T05:54:56.021Z,11.02
2022-11-10T05:55:59.050Z,11.57
2022-11-10T05:57:01.040Z,7.78
2022-11-10T05:58:04.874Z,8.45
2022-11-10T05:59:08.295Z,11.43
2022-11-10T06:00:14.226Z,10.25
2022-11-10T06:01:17.211Z,11.48
2022-11-10T06:02:19.214Z,8.02
2022-11-10T06:03:22.992Z,10.10
2022-11-10T06:04:25.078Z,13.88
2022-11-10T06:05:31.131Z,16.15
2022-11-10T06:06:33.368Z,15.63
2022-11-10T06:07:36.384Z,15.73
2022-11-10T06:08:38.819Z,12.75
2022-11-10T06:09:41.938Z,13.50
2022-11-10T06:10:45.229Z,16.65
2022-11-10T06:11:47.583Z,15.02
2022-11-10T06:12:50.538Z,19.95
2022-11-10T06:13:53.494Z,18.00
2022-11-10T06:14:55.441Z,15.48
2022-11-10T06:15:59.712Z,15.43
2022-11-10T06:17:01.665Z,15.68
2022-11-10T06:18:04.696Z,14.82
2022-11-10T06:19:06.737Z,17.33
2022-11-10T06:20:10.409Z,18.58
2022-11-10T06:21:12.355Z,20.88
2022-11-10T06:22:15.251Z,15.88
2022-11-10T06:23:17.159Z,14.00
2022-11-10T06:24:20.119Z,17.15
2022-11-10T06:25:22.085Z,15.20
2022-11-10T06:26:25.170Z,14.82
2022-11-10T06:27:28.123Z,16.10
2022-11-10T06:28:31.073Z,14.85
2022-11-10T06:29:33.609Z,11.77
2022-11-10T06:30:38.289Z,15.85
2022-11-10T06:31:42.544Z,11.80
2022-11-10T06:32:44.482Z,14.10
2022-11-10T06:33:49.171Z,16.02
2022-11-10T06:34:51.132Z,11.98
2022-11-10T06:35:54.167Z,12.23
2022-11-10T06:36:56.081Z,11.38
2022-11-10T06:38:00.497Z,12.50
2022-11-10T06:39:02.439Z,15.68
2022-11-10T06:40:06.319Z,13.50
2022-11-10T06:41:09.593Z,15.93
2022-11-10T06:42:12.478Z,12.60
2022-11-10T06:43:15.377Z,12.25
2022-11-10T06:44:17.343Z,11.27
2022-11-10T06:45:20.466Z,14.50
2022-11-10T06:46:23.365Z,13.70
2022-11-10T06:47:27.501Z,17.92
2022-11-10T06:48:30.440Z,14.10
2022-11-10T06:49:32.348Z,18.95
2022-11-10T06:50:35.485Z,13.43
2022-11-10T06:51:37.508Z,16.90
2022-11-10T06:52:40.400Z,15.25
2022-11-10T06:53:43.540Z,13.55
2022-11-10T06:54:45.528Z,14.75
2022-11-10T06:55:48.463Z,20.35
2022-11-10T06:56:50.401Z,20.20
2022-11-10T06:57:54.291Z,19.08
2022-11-10T06:58:56.224Z,16.52
2022-11-10T06:59:59.135Z,20.55
2022-11-10T07:01:01.495Z,21.42
2022-11-10T07:02:04.572Z,17.70
2022-11-10T07:03:12.334Z,16.02
2022-11-10T07:04:20.530Z,13.05
2022-11-10T07:05:24.132Z,14.70
2022-11-10T07:06:27.171Z,14.23
2022-11-10T07:07:29.154Z,15.90
2022-11-10T07:08:32.081Z,18.80
2022-11-10T07:09:34.035Z,14.00
2022-11-10T07:10:37.927Z,13.30
2022-11-10T07:11:39.926Z,13.05
2022-11-10T07:12:42.900Z,13.45
2022-11-10T07:13:45.872Z,13.93
2022-11-10T07:14:47.788Z,15.45
2022-11-10T07:15:50.698Z,28.27
2022-11-10T07:16:53.820Z,16.58
2022-11-10T07:17:56.953Z,13.48
2022-11-10T07:19:01.202Z,10.77
2022-11-10T07:20:04.292Z,10.82
2022-11-10T07:21:06.785Z,13.82
2022-11-10T07:22:11.351Z,9.80
2022-11-10T07:23:13.479Z,12.13
2022-11-10T07:24:16.412Z,9.25
2022-11-10T07:25:18.362Z,11.77
2022-11-10T07:26:21.284Z,8.90
2022-11-10T07:27:23.269Z,9.70
2022-11-10T07:28:28.475Z,8.07
2022-11-10T07:29:30.572Z,9.00
2022-11-10T07:30:35.420Z,10.55
2022-11-10T07:31:37.376Z,9.73
2022-11-10T07:32:40.344Z,8.68
2022-11-10T07:33:43.995Z,9.18
2022-11-10T07:34:48.282Z,7.78
2022-11-10T07:35:56.939Z,6.45
2022-11-10T07:36:59.862Z,6.28
2022-11-10T07:38:04.756Z,9.85
2022-11-10T07:39:07.897Z,5.40
2022-11-10T07:40:10.979Z,6.80
2022-11-10T07:41:13.896Z,7.50
2022-11-10T07:42:16.807Z,6.65
2022-11-10T07:43:19.128Z,5.13
2022-11-10T07:44:22.136Z,7.10
2022-11-10T07:45:24.163Z,4.65
2022-11-10T07:46:27.114Z,5.53
2022-11-10T07:47:29.025Z,5.25
2022-11-10T07:48:31.993Z,6.30
2022-11-10T07:49:33.925Z,8.02
2022-11-10T07:50:38.286Z,5.00
2022-11-10T07:51:40.228Z,7.10
2022-11-10T07:52:43.156Z,6.13
2022-11-10T07:53:45.124Z,7.53
2022-11-10T07:54:48.017Z,6.13
2022-11-10T07:55:51.007Z,6.57
2022-11-10T07:56:55.426Z,5.13
2022-11-10T07:57:58.301Z,5.03
2022-11-10T07:59:01.231Z,5.18
2022-11-10T08:00:04.850Z,6.22
2022-11-10T08:01:07.803Z,6.18
2022-11-10T08:02:11.040Z,5.72
2022-11-10T08:03:16.029Z,7.28
2022-11-10T08:04:18.120Z,6.22
2022-11-10T08:05:21.155Z,5.85
2022-11-10T08:06:25.566Z,6.72
2022-11-10T08:07:27.636Z,6.72
2022-11-10T08:08:30.745Z,5.53
2022-11-10T08:09:32.727Z,7.85
2022-11-10T08:10:36.572Z,10.43
2022-11-10T08:11:40.627Z,5.38
2022-11-10T08:12:42.571Z,5.57
2022-11-10T08:13:45.502Z,5.50
2022-11-10T08:14:47.447Z,6.57
2022-11-10T08:15:50.382Z,5.90
2022-11-10T08:16:52.525Z,5.25
2022-11-10T08:17:59.487Z,4.65
2022-11-10T08:19:01.414Z,4.18
2022-11-10T08:20:04.670Z,4.20
2022-11-10T08:21:07.796Z,4.80
2022-11-10T08:22:12.105Z,4.43
2022-11-10T08:23:15.191Z,5.70
2022-11-10T08:24:17.100Z,4.88
2022-11-10T08:25:20.031Z,4.93
2022-11-10T08:26:22.942Z,4.30
2022-11-10T08:27:24.866Z,7.13
2022-11-10T08:28:28.390Z,4.30
2022-11-10T08:29:30.306Z,7.03
2022-11-10T08:30:34.459Z,4.80
2022-11-10T08:31:38.189Z,6.07
2022-11-10T08:32:41.088Z,5.72
2022-11-10T08:33:43.977Z,4.95
2022-11-10T08:34:46.873Z,5.90
2022-11-10T08:35:51.798Z,4.03
2022-11-10T08:36:53.867Z,4.45
2022-11-10T08:37:58.156Z,6.60
2022-11-10T08:39:00.130Z,5.50
2022-11-10T08:40:04.415Z,5.93
2022-11-10T08:41:07.319Z,5.22
2022-11-10T08:42:09.272Z,8.50
2022-11-10T08:43:13.083Z,5.22
2022-11-10T08:44:20.685Z,3.50
2022-11-10T08:45:23.987Z,4.03
2022-11-10T08:46:26.888Z,5.35
2022-11-10T08:47:28.837Z,5.47
2022-11-10T08:48:31.874Z,5.13
2022-11-10T08:49:33.827Z,5.38
2022-11-10T08:50:37.690Z,4.82
2022-11-10T08:51:39.618Z,8.07
2022-11-10T08:52:42.542Z,6.15
2022-11-10T08:53:45.912Z,4.97
2022-11-10T08:54:48.804Z,12.32
2022-11-10T08:55:52.089Z,7.93
2022-11-10T08:56:55.257Z,6.82
2022-11-10T08:57:59.904Z,7.85
2022-11-10T08:59:02.812Z,9.90
2022-11-10T09:00:05.636Z,7.05
2022-11-10T09:01:10.172Z,6.03
2022-11-10T09:02:12.087Z,5.28
2022-11-10T09:03:16.951Z,6.25
2022-11-10T09:04:19.021Z,5.28
2022-11-10T09:05:22.046Z,5.68
2022-11-10T09:06:24.139Z,4.55
2022-11-10T09:07:27.213Z,4.25
2022-11-10T09:08:33.725Z,5.97
2022-11-10T09:09:37.982Z,4.63
2022-11-10T09:10:42.777Z,6.13
2022-11-10T09:11:45.666Z,6.25
2022-11-10T09:12:48.710Z,6.13
2022-11-10T09:13:51.625Z,6.22
2022-11-10T09:14:53.544Z,4.90
2022-11-10T09:15:56.503Z,4.70
2022-11-10T09:16:59.401Z,6.15
2022-11-10T09:18:03.336Z,5.95
2022-11-10T09:19:06.221Z,6.43
2022-11-10T09:20:09.753Z,5.20
2022-11-10T09:21:12.919Z,7.07
2022-11-10T09:22:14.889Z,4.68
2022-11-10T09:23:19.619Z,5.15
2022-11-10T09:24:21.718Z,6.80
2022-11-10T09:25:26.033Z,5.68
2022-11-10T09:26:27.969Z,5.35
2022-11-10T09:27:31.053Z,5.18
2022-11-10T09:28:34.082Z,8.90
2022-11-10T09:29:36.972Z,7.43
2022-11-10T09:30:39.881Z,6.28
2022-11-10T09:31:44.115Z,9.95
2022-11-10T09:32:47.161Z,6.65
2022-11-10T09:33:50.207Z,5.95
2022-11-10T09:34:53.208Z,8.63
2022-11-10T09:35:59.598Z,7.20
2022-11-10T09:37:02.555Z,5.80
2022-11-10T09:38:04.541Z,5.88
2022-11-10T09:39:07.840Z,5.53
2022-11-10T09:40:17.793Z,5.07
2022-11-10T09:41:22.173Z,6.55
2022-11-10T09:42:33.791Z,6.80
2022-11-10T09:43:42.257Z,10.77
2022-11-10T09:44:51.972Z,7.57
2022-11-10T09:45:57.900Z,6.20
2022-11-10T09:47:05.084Z,5.15
2022-11-10T09:48:14.408Z,7.18
2022-11-10T09:49:30.797Z,5.65
2022-11-10T09:50:41.666Z,4.55
2022-11-10T09:51:48.337Z,8.85
2022-11-10T09:52:53.382Z,6.03
2022-11-10T09:53:58.535Z,8.45
2022-11-10T09:55:05.459Z,6.30
2022-11-10T09:56:18.320Z,7.13
2022-11-10T09:57:25.846Z,6.22
2022-11-10T09:58:35.509Z,6.45
2022-11-10T09:59:38.486Z,7.05
2022-11-10T10:00:43.649Z,7.30
2022-11-10T10:01:52.523Z,6.18
2022-11-10T10:02:59.365Z,5.28
2022-11-10T10:04:08.965Z,7.30
2022-11-10T10:05:41.778Z,3.28
2022-11-10T10:07:10.158Z,3.30
2022-11-10T10:08:21.152Z,4.47
2022-11-10T10:09:36.413Z,6.25
2022-11-10T10:10:44.564Z,3.38
2022-11-10T10:11:54.771Z,5.90
2022-11-10T10:13:11.998Z,3.35
2022-11-10T10:14:34.695Z,6.30
2022-11-10T10:15:45.580Z,5.05
2022-11-10T10:16:56.517Z,4.00
2022-11-10T10:18:13.504Z,5.10
2022-11-10T10:19:23.900Z,5.93
2022-11-10T10:20:31.432Z,6.43
2022-11-10T10:21:41.768Z,4.57
2022-11-10T10:23:05.161Z,4.15
2022-11-10T10:24:19.871Z,4.07
2022-11-10T10:25:26.672Z,6.22
2022-11-10T10:26:31.048Z,3.13
2022-11-10T10:27:35.769Z,3.17
2022-11-10T10:28:42.119Z,2.58
2022-11-10T10:29:46.843Z,12.13
2022-11-10T10:30:48.888Z,3.85
2022-11-10T10:31:53.255Z,3.85
2022-11-10T10:33:01.260Z,7.38
2022-11-10T10:34:05.147Z,3.17
2022-11-10T10:35:13.159Z,4.78
2022-11-10T10:36:18.619Z,3.55
2022-11-10T10:37:25.048Z,4.93
2022-11-10T10:38:32.686Z,2.70
2022-11-10T10:39:41.694Z,4.85
2022-11-10T10:40:45.394Z,6.57
2022-11-10T10:41:48.598Z,3.78
2022-11-10T10:42:52.025Z,6.03
2022-11-10T10:43:58.664Z,2.45
2022-11-10T10:45:16.009Z,3.80
2022-11-10T10:46:24.432Z,2.28
2022-11-10T10:47:37.938Z,2.85
2022-11-10T10:48:40.869Z,5.78
2022-11-10T10:49:43.771Z,2.88
2022-11-10T10:50:48.130Z,3.08
2022-11-10T10:52:02.524Z,4.40
2022-11-10T10:53:12.185Z,7.80
2022-11-10T10:54:26.476Z,4.07
2022-11-10T10:55:30.080Z,5.30
2022-11-10T10:56:34.236Z,4.95
2022-11-10T10:57:37.151Z,4.28
2022-11-10T10:58:54.159Z,1.90
2022-11-10T11:00:21.347Z,4.55
2022-11-10T11:01:30.593Z,4.65
2022-11-10T11:02:33.680Z,4.78
2022-11-10T11:03:42.600Z,4.63
2022-11-10T11:04:45.590Z,3.47
2022-11-10T11:06:02.272Z,4.18
2022-11-10T11:07:07.109Z,4.43
2022-11-10T11:08:18.960Z,12.98
2022-11-10T11:09:25.568Z,3.28
2022-11-10T11:10:30.795Z,3.67
2022-11-10T11:11:35.546Z,4.15
2022-11-10T11:12:38.512Z,5.25
2022-11-10T11:13:40.512Z,1.85
2022-11-10T11:14:46.182Z,4.05
2022-11-10T11:15:57.454Z,3.78
2022-11-10T11:17:02.577Z,1.88
2022-11-10T11:18:13.240Z,3.15
2022-11-10T11:19:17.041Z,4.20
2022-11-10T11:20:19.181Z,5.32
2022-11-10T11:21:34.923Z,3.63
2022-11-10T11:22:50.058Z,5.55
2022-11-10T11:24:05.467Z,3.67
2022-11-10T11:25:19.488Z,2.40
2022-11-10T11:26:30.716Z,7.13
2022-11-10T11:27:40.513Z,4.35
2022-11-10T11:28:50.928Z,2.13
2022-11-10T11:30:05.837Z,2.03
2022-11-10T11:31:18.869Z,3.45
2022-11-10T11:32:29.719Z,3.25
2022-11-10T11:33:41.734Z,4.25
2022-11-10T11:34:52.792Z,2.38
2022-11-10T11:36:02.333Z,3.97
2022-11-10T11:37:14.140Z,1.63
2022-11-10T11:38:33.162Z,2.22
2022-11-10T11:39:48.752Z,5.20
2022-11-10T11:40:59.618Z,4.15
2022-11-10T11:42:14.161Z,3.38
2022-11-10T11:43:55.008Z,1.35
2022-11-10T11:45:13.600Z,4.28
2022-11-10T11:46:26.996Z,3.03
2022-11-10T11:47:45.528Z,2.88
2022-11-10T11:48:52.985Z,4.88
2022-11-10T11:50:17.677Z,3.53
2022-11-10T11:51:27.728Z,4.07
2022-11-10T11:52:37.884Z,1.55
2022-11-10T11:54:04.359Z,3.05
2022-11-10T11:55:19.384Z,5.40
2022-11-10T11:56:27.474Z,2.55
2022-11-10T11:57:40.432Z,3.15
2022-11-10T11:58:46.012Z,1.85
2022-11-10T12:00:03.949Z,2.78
2022-11-10T12:01:30.190Z,3.22
2022-11-10T12:03:01.501Z,4.50
2022-11-10T12:04:43.004Z,5.65
2022-11-10T12:05:53.669Z,3.40
2022-11-10T12:07:09.203Z,4.30
2022-11-10T12:08:21.966Z,3.72
2022-11-10T12:09:34.872Z,5.40
2022-11-10T12:10:46.822Z,4.82
2022-11-10T12:12:08.766Z,3.90
2022-11-10T12:13:35.800Z,1.27
2022-11-10T12:14:52.229Z,2.35
2022-11-10T12:16:00.696Z,5.47
2022-11-10T12:17:17.381Z,2.90
2022-11-10T12:18:30.497Z,5.25
2022-11-10T12:19:40.630Z,2.25
2022-11-10T12:20:55.956Z,5.97
2022-11-10T12:22:05.604Z,1.98
2022-11-10T12:23:16.763Z,2.03
2022-11-10T12:24:47.563Z,1.45
2022-11-10T12:26:00.586Z,3.38
2022-11-10T12:27:10.095Z,3.05
2022-11-10T12:28:16.961Z,1.70
2022-11-10T12:29:28.637Z,8.27
2022-11-10T12:30:32.896Z,3.83
2022-11-10T12:31:38.094Z,1.85
2022-11-10T12:32:47.343Z,3.42
2022-11-10T12:33:57.643Z,2.00
2022-11-10T12:35:07.111Z,4.35
2022-11-10T12:36:13.553Z,2.75
2022-11-10T12:37:27.565Z,1.45
2022-11-10T12:38:43.380Z,2.65
2022-11-10T12:39:54.367Z,5.82
2022-11-10T12:41:06.187Z,2.30
2022-11-10T12:42:14.496Z,2.22
2022-11-10T12:43:28.128Z,2.58
2022-11-10T12:44:35.227Z,3.70
2022-11-10T12:45:45.121Z,1.67
2022-11-10T12:46:52.214Z,2.78
2022-11-10T12:47:55.263Z,3.65
2022-11-10T12:49:08.421Z,3.30
2022-11-10T12:50:27.962Z,8.10
2022-11-10T12:51:36.751Z,5.60
2022-11-10T12:52:44.673Z,1.83
2022-11-10T12:53:49.617Z,2.45
2022-11-10T12:54:51.708Z,4.45
2022-11-10T12:55:59.238Z,4.70
2022-11-10T12:57:07.340Z,2.30
2022-11-10T12:58:13.667Z,4.32
2022-11-10T12:59:25.021Z,1.92
2022-11-10T13:00:30.115Z,2.25
2022-11-10T13:01:33.279Z,2.35
2022-11-10T13:02:40.234Z,2.72
2022-11-10T13:03:56.348Z,2.00
2022-11-10T13:05:29.286Z,2.13
2022-11-10T13:06:35.755Z,1.80
2022-11-10T13:07:37.938Z,2.20
2022-11-10T13:08:49.690Z,4.05
2022-11-10T13:09:52.657Z,3.60
2022-11-10T13:10:56.523Z,2.28
2022-11-10T13:12:18.881Z,6.47
2022-11-10T13:13:23.316Z,3.63
2022-11-10T13:14:29.684Z,2.25
2022-11-10T13:15:48.856Z,4.13
2022-11-10T13:16:54.374Z,3.80
2022-11-10T13:17:57.387Z,1.95
2022-11-10T13:19:01.992Z,5.97
2022-11-10T13:20:30.081Z,1.05
2022-11-10T13:22:01.329Z,1.30
2022-11-10T13:23:24.151Z,1.75
2022-11-10T13:24:28.371Z,2.05
2022-11-10T13:25:56.406Z,4.80
2022-11-10T13:27:00.757Z,5.00
2022-11-10T13:28:03.277Z,4.75
2022-11-10T13:29:21.560Z,3.75
2022-11-10T13:30:46.400Z,3.00
2022-11-10T13:31:53.804Z,2.95
2022-11-10T13:33:16.718Z,3.30
2022-11-10T13:34:36.086Z,8.25
2022-11-10T13:35:56.320Z,2.55
2022-11-10T13:36:59.783Z,2.30
2022-11-10T13:38:02.717Z,3.15
2022-11-10T13:39:26.095Z,1.67
2022-11-10T13:40:35.894Z,1.73
2022-11-10T13:41:47.541Z,2.60
2022-11-10T13:43:13.407Z,8.88
2022-11-10T13:44:23.920Z,2.90
2022-11-10T13:45:33.625Z,2.67
2022-11-10T13:46:38.597Z,1.20
2022-11-10T13:47:50.498Z,3.67
2022-11-10T13:49:30.884Z,1.17
2022-11-10T13:50:45.197Z,4.75
2022-11-10T13:51:58.375Z,2.22
2022-11-10T13:53:14.807Z,4.72
2022-11-10T13:54:39.217Z,2.33
2022-11-10T13:55:53.400Z,1.50
2022-11-10T13:57:08.276Z,3.00
2022-11-10T13:58:19.113Z,4.97
2022-11-10T13:59:24.596Z,2.22
2022-11-10T14:00:29.959Z,1.92
2022-11-10T14:01:34.902Z,1.42
2022-11-10T14:02:46.409Z,2.33
2022-11-10T14:04:02.040Z,3.55
2022-11-10T14:05:06.322Z,3.50
2022-11-10T14:06:18.035Z,4.68
2022-11-10T14:07:21.019Z,2.30
2022-11-10T14:08:29.158Z,7.28
2022-11-10T14:09:39.530Z,3.30
2022-11-10T14:10:47.468Z,5.68
2022-11-10T14:11:54.990Z,1.55
2022-11-10T14:13:05.601Z,2.88
2022-11-10T14:14:14.809Z,3.05
2022-11-10T14:15:20.099Z,5.55
2022-11-10T14:16:26.142Z,3.15
2022-11-10T14:17:31.769Z,2.33
2022-11-10T14:18:40.308Z,2.95
2022-11-10T14:19:45.542Z,4.35
2022-11-10T14:20:52.821Z,7.63
2022-11-10T14:21:59.909Z,2.58
2022-11-10T14:23:05.978Z,2.65
2022-11-10T14:24:16.472Z,2.17
2022-11-10T14:25:24.080Z,2.47
2022-11-10T14:26:32.549Z,3.50